Amaicha del Valle, Argentina
Current Conditions -  °F | °C
As of 11:00 PM on Friday 31 Oct 2014 (Local Time) from SANT Reporting Station
Broken Clouds Broken Clouds  
Wind Chill: 72°   Ceiling: 3000
Heat Index: 72°   Visibility: 4mi
Dew Point: 70°   Wind: 8mph
Humidity: 94%   Direction: 90°E
Pressure: 29.91"   Gusts: NA
Location:  26.73°S, 65.8°W
Report Text: SANT 010200Z 09007KT 6000 SCT015 BKN03022/21 Q1013
Loading
Personal Weather Stations






























Interactive Weather Map New forecast layout! Learn more

10-Day Weather Forecast

Advertisements
Track Severe Weather on mobile